Dixie, Washington
Current Conditions -  °F | °C
As of 10:53 PM on Sunday 23 Nov 2014 (Local Time) from KALW Reporting Station
Clear Clear  
Wind Chill: 34°   Ceiling: Unl
Heat Index: 41°   Visibility: 10mi
Dew Point: 36°   Wind: 13mph
Humidity: 82%   Direction: 180°S
Pressure: 30.27"   Gusts: NA
Location:  46.14°N, 118.16°W
Report Text: KALW 240653Z AUTO 18011KT 10SM CLR 05/02 A3027 RMK AO2 SLP257 T00500022
Loading
Personal Weather Stations






























Interactive Weather Map New forecast layout! Learn more

10-Day Weather Forecast

Advertisements
Track Severe Weather on mobile